createdAt,value
2019-05-16T00:01:09.420Z,67.42
2019-05-16T00:03:39.063Z,66.94
2019-05-16T00:06:08.694Z,67.69
2019-05-16T00:08:38.839Z,65.27
2019-05-16T00:11:08.680Z,65.39
2019-05-16T00:13:38.421Z,64.59
2019-05-16T00:16:08.110Z,64.95
2019-05-16T00:18:38.821Z,64.78
2019-05-16T00:21:08.779Z,65.49
2019-05-16T00:23:38.314Z,66.33
2019-05-16T00:26:07.983Z,65.97
2019-05-16T00:28:37.991Z,66.62
2019-05-16T00:31:08.616Z,67.35
2019-05-16T00:33:38.162Z,66.70
2019-05-16T00:36:09.227Z,66.29
2019-05-16T00:38:38.700Z,68.12
2019-05-16T00:41:08.613Z,70.31
2019-05-16T00:43:38.221Z,69.14
2019-05-16T00:46:08.248Z,69.14
2019-05-16T00:48:38.266Z,68.12
2019-05-16T00:51:08.050Z,69.12
2019-05-16T00:53:38.268Z,69.71
2019-05-16T00:56:08.730Z,69.31
2019-05-16T00:58:38.755Z,69.52
2019-05-16T01:01:08.649Z,69.31
2019-05-16T01:03:37.976Z,69.01
2019-05-16T01:06:16.608Z,70.05
2019-05-16T01:08:38.621Z,70.50
2019-05-16T01:11:08.097Z,70.27
2019-05-16T01:13:38.093Z,68.44
2019-05-16T01:16:08.589Z,69.02
2019-05-16T01:18:38.123Z,68.28
2019-05-16T01:21:07.824Z,69.18
2019-05-16T01:23:38.829Z,70.19
2019-05-16T01:26:08.227Z,70.19
2019-05-16T01:28:37.851Z,70.50
2019-05-16T01:31:08.605Z,71.40
2019-05-16T01:33:38.629Z,72.04
2019-05-16T01:36:08.960Z,73.25
2019-05-16T01:38:39.055Z,73.14
2019-05-16T01:41:08.820Z,71.89
2019-05-16T01:43:38.334Z,72.12
2019-05-16T01:46:08.414Z,72.15
2019-05-16T01:48:38.301Z,72.40
2019-05-16T01:51:07.926Z,71.16
2019-05-16T01:53:39.415Z,73.03
2019-05-16T01:56:08.664Z,73.26
2019-05-16T01:58:38.307Z,73.60
2019-05-16T02:01:13.395Z,73.59
2019-05-16T02:03:38.881Z,72.94
2019-05-16T02:06:08.807Z,74.13
2019-05-16T02:08:38.280Z,74.08
2019-05-16T02:11:08.549Z,74.43
2019-05-16T02:13:39.100Z,74.21
2019-05-16T02:16:08.921Z,74.23
2019-05-16T02:18:38.342Z,75.32
2019-05-16T02:21:07.942Z,74.44
2019-05-16T02:23:38.170Z,74.48
2019-05-16T02:26:07.996Z,74.58
2019-05-16T02:28:40.921Z,74.10
2019-05-16T02:31:14.809Z,74.62
2019-05-16T02:33:40.747Z,75.26
2019-05-16T02:36:11.101Z,75.10
2019-05-16T02:38:42.270Z,75.32
2019-05-16T02:41:11.562Z,75.20
2019-05-16T02:43:42.031Z,75.43
2019-05-16T02:46:12.285Z,75.04
2019-05-16T02:48:42.243Z,76.24
2019-05-16T02:51:11.640Z,74.19
2019-05-16T02:53:41.781Z,74.96
2019-05-16T02:56:12.128Z,75.87
2019-05-16T02:58:44.824Z,75.73
2019-05-16T03:01:12.807Z,75.79
2019-05-16T03:03:44.089Z,75.18
2019-05-16T03:06:14.316Z,74.08
2019-05-16T03:08:46.215Z,73.38
2019-05-16T03:11:15.994Z,73.77
2019-05-16T03:13:46.560Z,72.62
2019-05-16T03:16:17.186Z,72.02
2019-05-16T03:18:47.628Z,71.82
2019-05-16T03:21:17.389Z,72.51
2019-05-16T03:23:47.017Z,73.48
2019-05-16T03:26:16.324Z,74.72
2019-05-16T03:28:45.715Z,74.20
2019-05-16T03:31:15.907Z,75.47
2019-05-16T03:33:56.416Z,76.12
2019-05-16T03:36:16.672Z,75.98
2019-05-16T03:38:46.029Z,76.96
2019-05-16T03:41:15.246Z,77.26
2019-05-16T03:43:44.603Z,78.19
2019-05-16T03:46:13.914Z,78.78
2019-05-16T03:48:43.221Z,79.30
2019-05-16T03:51:12.703Z,78.95
2019-05-16T03:53:42.011Z,78.67
2019-05-16T03:56:11.429Z,78.12
2019-05-16T03:58:41.431Z,78.15
2019-05-16T04:01:11.756Z,78.94
2019-05-16T04:03:41.705Z,78.48
2019-05-16T04:06:12.165Z,77.82
2019-05-16T04:08:41.663Z,77.17
2019-05-16T04:11:11.811Z,76.94
2019-05-16T04:13:41.720Z,76.33
2019-05-16T04:16:12.126Z,77.14
2019-05-16T04:18:42.263Z,77.20
2019-05-16T04:21:12.203Z,76.97
2019-05-16T04:23:42.086Z,78.82
2019-05-16T04:26:11.863Z,78.82
2019-05-16T04:28:41.642Z,77.84
2019-05-16T04:31:11.525Z,79.55
2019-05-16T04:33:41.748Z,79.18
2019-05-16T04:36:11.479Z,77.61
2019-05-16T04:38:46.496Z,76.86
2019-05-16T04:41:12.579Z,77.19
2019-05-16T04:43:41.936Z,74.87
2019-05-16T04:46:11.903Z,70.76
2019-05-16T04:48:41.976Z,69.87
2019-05-16T04:51:26.744Z,69.07
2019-05-16T04:53:55.960Z,68.25
2019-05-16T04:56:25.263Z,68.60
2019-05-16T04:58:54.471Z,67.08
2019-05-16T05:01:23.740Z,65.95
2019-05-16T05:04:06.256Z,66.21
2019-05-16T05:06:24.104Z,65.18
2019-05-16T05:08:58.525Z,65.11
2019-05-16T05:11:24.488Z,63.71
2019-05-16T05:13:53.744Z,64.42
2019-05-16T05:16:23.061Z,62.98
2019-05-16T05:18:52.284Z,62.22
2019-05-16T05:21:21.486Z,62.28
2019-05-16T05:23:51.007Z,60.87
2019-05-16T05:26:20.274Z,60.39
2019-05-16T05:28:50.814Z,59.48
2019-05-16T05:31:24.925Z,60.17
2019-05-16T05:33:51.394Z,59.03
2019-05-16T05:36:21.238Z,57.96
2019-05-16T05:39:06.282Z,59.17
2019-05-16T05:41:21.843Z,57.79
2019-05-16T05:43:51.057Z,55.47
2019-05-16T05:46:20.635Z,55.15
2019-05-16T05:48:50.504Z,53.37
2019-05-16T05:51:20.713Z,51.10
2019-05-16T05:53:50.965Z,52.33
2019-05-16T05:56:20.623Z,51.00
2019-05-16T05:58:51.175Z,52.01
2019-05-16T06:01:20.928Z,52.61
2019-05-16T06:03:50.648Z,52.45
2019-05-16T06:06:21.008Z,51.83
2019-05-16T06:08:50.484Z,52.12
2019-05-16T06:11:20.471Z,51.14
2019-05-16T06:13:50.249Z,51.95
2019-05-16T06:16:20.431Z,52.76
2019-05-16T06:18:50.421Z,53.69
2019-05-16T06:21:20.441Z,52.37
2019-05-16T06:23:50.893Z,51.31
2019-05-16T06:26:20.733Z,49.29
2019-05-16T06:28:52.705Z,49.40
2019-05-16T06:31:22.437Z,50.39
2019-05-16T06:33:51.685Z,51.18
2019-05-16T06:36:21.009Z,51.14
2019-05-16T06:38:50.439Z,50.65
2019-05-16T06:41:20.075Z,48.04
2019-05-16T06:43:50.705Z,48.00
2019-05-16T06:46:20.314Z,44.80
2019-05-16T06:48:50.607Z,43.27
2019-05-16T06:51:20.264Z,40.94
2019-05-16T06:53:49.998Z,43.25
2019-05-16T06:56:20.143Z,42.81
2019-05-16T06:58:51.924Z,46.27
2019-05-16T07:01:21.114Z,45.52
2019-05-16T07:03:51.037Z,42.11
2019-05-16T07:06:46.050Z,38.02
2019-05-16T07:08:51.598Z,35.96
2019-05-16T07:11:21.008Z,36.08
2019-05-16T07:13:51.995Z,39.34
2019-05-16T07:16:21.567Z,41.87
2019-05-16T07:18:50.960Z,41.86
2019-05-16T07:21:20.418Z,43.33
2019-05-16T07:23:51.081Z,44.31
2019-05-16T07:26:20.815Z,44.68
2019-05-16T07:28:51.539Z,45.25
2019-05-16T07:31:22.605Z,43.57
2019-05-16T07:33:52.271Z,43.55
2019-05-16T07:36:21.589Z,43.32
2019-05-16T07:38:50.978Z,44.17
2019-05-16T07:41:20.568Z,43.49
2019-05-16T07:43:50.743Z,41.37
2019-05-16T07:46:20.719Z,36.64
2019-05-16T07:48:51.734Z,34.67
2019-05-16T07:51:21.189Z,34.83
2019-05-16T07:53:50.731Z,34.15
2019-05-16T07:56:20.598Z,34.22
2019-05-16T07:58:50.688Z,37.22
2019-05-16T08:01:20.537Z,34.70
2019-05-16T08:03:50.999Z,35.47
2019-05-16T08:06:20.500Z,36.37
2019-05-16T08:08:50.988Z,34.18
2019-05-16T08:11:23.760Z,36.30
2019-05-16T08:13:51.766Z,36.30
2019-05-16T08:16:21.085Z,35.01
2019-05-16T08:18:50.831Z,33.07
2019-05-16T08:21:20.544Z,33.07
2019-05-16T08:23:50.707Z,33.84
2019-05-16T08:28:51.486Z,31.16
2019-05-16T08:33:54.609Z,23.46
2019-05-16T08:36:23.224Z,23.60
2019-05-16T08:38:52.572Z,24.10
2019-05-16T08:41:22.439Z,21.15
2019-05-16T08:43:53.218Z,21.22
2019-05-16T08:46:23.008Z,24.33
2019-05-16T08:50:10.776Z,27.46
2019-05-16T08:51:23.369Z,29.30
2019-05-16T08:53:52.931Z,27.40
2019-05-16T08:56:22.633Z,28.87
2019-05-16T08:58:53.813Z,29.75
2019-05-16T09:01:23.118Z,32.16
2019-05-16T09:03:52.593Z,32.28
2019-05-16T09:06:22.993Z,34.17
2019-05-16T09:08:52.919Z,35.52
2019-05-16T09:10:20.787Z,30.24
2019-05-16T09:10:35.111Z,28.53
2019-05-16T09:11:38.964Z,35.99
2019-05-16T09:13:53.371Z,34.59
2019-05-16T09:16:22.916Z,32.03
2019-05-16T09:18:52.340Z,31.83
2019-05-16T09:21:21.762Z,29.26
2019-05-16T09:23:51.149Z,28.74
2019-05-16T09:26:20.583Z,28.76
2019-05-16T09:28:50.093Z,29.92
2019-05-16T09:31:19.371Z,28.76
2019-05-16T09:33:48.643Z,29.90
2019-05-16T09:36:18.030Z,31.13
2019-05-16T09:38:48.674Z,29.80
2019-05-16T09:41:18.390Z,31.05
2019-05-16T09:43:48.901Z,31.41
2019-05-16T09:46:18.337Z,29.29
2019-05-16T09:48:48.149Z,27.23
2019-05-16T09:51:21.064Z,28.39
2019-05-16T09:53:48.793Z,27.29
2019-05-16T09:56:18.202Z,28.87
2019-05-16T09:58:47.586Z,30.25
2019-05-16T10:01:17.555Z,28.90
2019-05-16T10:03:47.707Z,25.12
2019-05-16T10:06:19.209Z,24.09
2019-05-16T10:08:48.365Z,23.87
2019-05-16T10:11:18.254Z,26.11
2019-05-16T10:13:47.860Z,28.36
2019-05-16T10:16:17.478Z,29.45
2019-05-16T10:18:47.643Z,32.64
2019-05-16T10:21:20.421Z,33.14
2019-05-16T10:23:48.378Z,34.02
2019-05-16T10:26:19.447Z,33.04
2019-05-16T10:28:48.968Z,33.20
2019-05-16T10:31:18.373Z,33.97
2019-05-16T10:33:47.998Z,34.48
2019-05-16T10:36:21.426Z,35.13
2019-05-16T10:38:48.639Z,34.91
2019-05-16T10:41:17.946Z,34.00
2019-05-16T10:43:47.565Z,31.06
2019-05-16T10:46:17.821Z,29.16
2019-05-16T10:48:47.336Z,28.85
2019-05-16T10:51:17.118Z,27.21
2019-05-16T10:54:05.640Z,26.52
2019-05-16T10:56:17.544Z,28.42
2019-05-16T10:59:04.980Z,30.03
2019-05-16T11:01:26.953Z,30.23
2019-05-16T11:03:49.341Z,30.88
2019-05-16T11:06:25.769Z,28.28
2019-05-16T11:08:49.717Z,27.55
2019-05-16T11:11:19.959Z,25.44
2019-05-16T11:13:51.247Z,25.82
2019-05-16T11:16:20.572Z,24.84
2019-05-16T11:18:49.760Z,21.11
2019-05-16T11:21:19.475Z,23.99
2019-05-16T11:23:48.887Z,25.22
2019-05-16T11:26:18.245Z,28.23
2019-05-16T11:28:48.918Z,27.48
2019-05-16T11:31:18.496Z,31.32
2019-05-16T11:33:47.878Z,26.52
2019-05-16T11:36:17.188Z,23.62
2019-05-16T11:38:47.478Z,27.07
2019-05-16T11:41:17.108Z,30.98
2019-05-16T11:43:47.356Z,34.78
2019-05-16T11:46:16.953Z,34.70
2019-05-16T11:48:48.646Z,34.03
2019-05-16T11:51:17.598Z,32.39
2019-05-16T11:53:47.639Z,34.85
2019-05-16T11:56:17.324Z,35.15
2019-05-16T11:58:47.325Z,36.49
2019-05-16T12:01:16.861Z,36.92
2019-05-16T12:03:46.855Z,35.30
2019-05-16T12:06:17.134Z,36.72
2019-05-16T12:08:46.862Z,37.34
2019-05-16T12:11:17.859Z,37.07
2019-05-16T12:13:47.839Z,38.48
2019-05-16T12:16:18.812Z,37.24
2019-05-16T12:18:48.489Z,36.36
2019-05-16T12:21:17.870Z,31.50
2019-05-16T12:23:47.445Z,28.47
2019-05-16T12:26:17.691Z,28.32
2019-05-16T12:28:47.281Z,28.63
2019-05-16T12:31:17.388Z,30.11
2019-05-16T12:33:47.810Z,30.29
2019-05-16T12:36:17.727Z,30.43
2019-05-16T12:38:47.212Z,30.13
2019-05-16T12:41:16.698Z,27.93
2019-05-16T12:43:53.151Z,23.81
2019-05-16T12:46:17.014Z,24.96
2019-05-16T12:48:47.392Z,25.04
2019-05-16T12:51:17.227Z,25.21
2019-05-16T12:53:47.716Z,25.50
2019-05-16T12:56:17.664Z,28.51
2019-05-16T12:58:47.411Z,29.98
2019-05-16T13:01:20.711Z,28.49
2019-05-16T13:03:49.516Z,25.69
2019-05-16T13:06:18.897Z,27.40
2019-05-16T13:08:48.281Z,26.35
2019-05-16T13:11:17.874Z,28.34
2019-05-16T13:14:02.135Z,29.76
2019-05-16T13:16:18.481Z,33.49
2019-05-16T13:18:47.830Z,34.14
2019-05-16T13:21:18.454Z,30.64
2019-05-16T13:23:48.183Z,27.63
2019-05-16T13:26:17.847Z,27.63
2019-05-16T13:28:47.782Z,26.92
2019-05-16T13:31:17.470Z,29.29
2019-05-16T13:33:46.911Z,28.67
2019-05-16T13:36:17.412Z,28.90
2019-05-16T13:38:48.017Z,30.10
2019-05-16T13:41:18.410Z,32.21
2019-05-16T13:43:47.901Z,32.95
2019-05-16T13:46:17.358Z,33.81
2019-05-16T13:48:46.640Z,32.89
2019-05-16T13:51:18.910Z,32.73
2019-05-16T13:53:47.365Z,33.75
2019-05-16T13:56:17.834Z,32.18
2019-05-16T13:58:47.461Z,32.71
2019-05-16T14:01:17.318Z,27.15
2019-05-16T14:03:48.236Z,27.37
2019-05-16T14:06:18.590Z,29.45
2019-05-16T14:08:48.090Z,31.50
2019-05-16T14:11:17.403Z,29.68
2019-05-16T14:13:47.125Z,28.80
2019-05-16T14:16:18.055Z,27.28
2019-05-16T14:18:47.571Z,28.10
2019-05-16T14:21:18.178Z,28.83
2019-05-16T14:23:53.189Z,30.29
2019-05-16T14:26:18.968Z,34.43
2019-05-16T14:28:49.168Z,36.77
2019-05-16T14:31:18.851Z,36.28
2019-05-16T14:33:48.149Z,37.66
2019-05-16T14:36:17.602Z,37.79
2019-05-16T14:38:46.999Z,33.88
2019-05-16T14:41:17.358Z,32.90
2019-05-16T14:43:47.053Z,35.73
2019-05-16T14:46:18.281Z,37.13
2019-05-16T14:48:47.644Z,35.72
2019-05-16T14:51:18.065Z,36.97
2019-05-16T14:53:47.854Z,38.04
2019-05-16T14:56:17.212Z,36.42
2019-05-16T14:58:48.588Z,37.86
2019-05-16T15:01:17.838Z,35.40
2019-05-16T15:03:47.475Z,38.65
2019-05-16T15:06:18.244Z,39.23
2019-05-16T15:08:47.761Z,39.60
2019-05-16T15:11:18.037Z,39.33
2019-05-16T15:13:47.601Z,40.24
2019-05-16T15:16:17.141Z,40.35
2019-05-16T15:18:47.560Z,42.84
2019-05-16T15:21:17.871Z,41.60
2019-05-16T15:23:47.288Z,42.83
2019-05-16T15:26:18.094Z,43.05
2019-05-16T15:28:51.305Z,43.18
2019-05-16T15:31:18.572Z,43.07
2019-05-16T15:33:47.926Z,43.02
2019-05-16T15:36:17.207Z,43.31
2019-05-16T15:38:47.250Z,42.59
2019-05-16T15:41:17.447Z,42.35
2019-05-16T15:43:47.095Z,44.72
2019-05-16T15:46:17.445Z,43.82
2019-05-16T15:48:48.762Z,42.90
2019-05-16T15:51:21.224Z,42.47
2019-05-16T15:53:49.599Z,42.60
2019-05-16T15:56:19.031Z,42.92
2019-05-16T15:58:49.304Z,41.48
2019-05-16T16:01:18.780Z,42.19
2019-05-16T16:03:48.078Z,42.32
2019-05-16T16:06:17.902Z,43.74
2019-05-16T16:08:47.892Z,42.07
2019-05-16T16:11:17.453Z,41.64
2019-05-16T16:13:48.394Z,42.38
2019-05-16T16:16:17.841Z,44.22
2019-05-16T16:18:47.305Z,44.07
2019-05-16T16:21:16.850Z,43.37
2019-05-16T16:23:47.329Z,45.53
2019-05-16T16:26:17.922Z,46.13
2019-05-16T16:28:47.373Z,46.84
2019-05-16T16:31:17.020Z,47.46
2019-05-16T16:33:46.595Z,51.16
2019-05-16T16:36:17.100Z,51.16
2019-05-16T16:38:47.671Z,53.03
2019-05-16T16:41:17.175Z,53.46
2019-05-16T16:43:47.689Z,54.62
2019-05-16T16:46:17.307Z,54.31
2019-05-16T16:48:47.021Z,55.64
2019-05-16T16:51:17.637Z,56.26
2019-05-16T16:53:47.590Z,56.96
2019-05-16T16:56:17.047Z,57.39
2019-05-16T16:58:46.765Z,58.07
2019-05-16T17:01:17.388Z,58.13
2019-05-16T17:03:47.076Z,57.99
2019-05-16T17:06:17.715Z,59.05
2019-05-16T17:08:47.574Z,58.18
2019-05-16T17:11:17.011Z,58.94
2019-05-16T17:13:47.209Z,59.71
2019-05-16T17:16:25.773Z,59.27
2019-05-16T17:18:48.241Z,58.98
2019-05-16T17:21:17.567Z,59.97
2019-05-16T17:23:46.840Z,60.25
2019-05-16T17:26:16.225Z,59.58
2019-05-16T17:28:46.751Z,60.25
2019-05-16T17:31:16.893Z,61.14
2019-05-16T17:33:46.514Z,61.37
2019-05-16T17:36:17.257Z,62.36
2019-05-16T17:38:46.763Z,61.40
2019-05-16T17:41:16.842Z,61.59
2019-05-16T17:43:46.969Z,62.17
2019-05-16T17:46:16.415Z,63.39
2019-05-16T17:48:46.776Z,63.24
2019-05-16T17:51:16.931Z,63.56
2019-05-16T17:53:46.291Z,63.59
2019-05-16T17:56:17.112Z,64.49
2019-05-16T17:58:46.715Z,64.43
2019-05-16T18:01:17.115Z,65.29
2019-05-16T18:03:46.670Z,66.86
2019-05-16T18:06:16.972Z,67.30
2019-05-16T18:08:46.941Z,68.12
2019-05-16T18:11:17.779Z,67.79
2019-05-16T18:13:47.477Z,67.85
2019-05-16T18:16:16.906Z,69.50
2019-05-16T18:18:46.979Z,69.50
2019-05-16T18:21:17.020Z,69.62
2019-05-16T18:23:47.201Z,69.31
2019-05-16T18:26:17.367Z,69.52
2019-05-16T18:28:47.097Z,70.26
2019-05-16T18:31:17.371Z,71.03
2019-05-16T18:33:47.159Z,71.00
2019-05-16T18:36:17.133Z,71.11
2019-05-16T18:38:46.793Z,71.98
2019-05-16T18:41:16.689Z,71.78
2019-05-16T18:43:47.199Z,71.86
2019-05-16T18:46:16.631Z,72.38
2019-05-16T18:48:47.183Z,71.55
2019-05-16T18:51:16.701Z,72.21
2019-05-16T18:53:46.568Z,72.93
2019-05-16T18:56:16.937Z,72.50
2019-05-16T18:58:46.843Z,73.31
2019-05-16T19:01:17.617Z,74.12
2019-05-16T19:03:48.953Z,73.99
2019-05-16T19:06:18.955Z,74.33
2019-05-16T19:08:48.974Z,73.89
2019-05-16T19:11:20.868Z,73.56
2019-05-16T19:13:50.644Z,74.29
2019-05-16T19:16:20.171Z,73.53
2019-05-16T19:18:49.952Z,74.64
2019-05-16T19:21:19.514Z,74.71
2019-05-16T19:23:49.062Z,75.45
2019-05-16T19:26:18.543Z,74.94
2019-05-16T19:28:47.895Z,75.16
2019-05-16T19:31:17.578Z,75.11
2019-05-16T19:33:48.845Z,75.04
2019-05-16T19:36:18.496Z,74.46
2019-05-16T19:38:47.866Z,74.28
2019-05-16T19:41:17.292Z,74.30
2019-05-16T19:43:49.244Z,74.84
2019-05-16T19:46:18.567Z,74.51
2019-05-16T19:48:48.063Z,75.49
2019-05-16T19:51:17.317Z,75.86
2019-05-16T19:53:47.157Z,75.60
2019-05-16T19:56:17.753Z,76.60
2019-05-16T19:58:47.227Z,76.85
2019-05-16T20:01:16.873Z,76.60
2019-05-16T20:03:47.104Z,77.10
2019-05-16T20:06:16.946Z,77.00
2019-05-16T20:08:46.675Z,77.70
2019-05-16T20:11:16.845Z,77.63
2019-05-16T20:13:47.370Z,77.93
2019-05-16T20:16:18.433Z,77.59
2019-05-16T20:18:48.025Z,77.86
2019-05-16T20:21:18.514Z,77.81
2019-05-16T20:23:47.997Z,77.69
2019-05-16T20:26:47.240Z,78.69
2019-05-16T20:29:17.166Z,78.82
2019-05-16T20:31:47.472Z,78.16
2019-05-16T20:34:17.688Z,78.19
2019-05-16T20:36:47.215Z,78.44
2019-05-16T20:39:17.212Z,78.49
2019-05-16T20:41:47.554Z,78.46
2019-05-16T20:44:17.487Z,78.91
2019-05-16T20:46:49.598Z,78.79
2019-05-16T20:49:17.935Z,79.23
2019-05-16T20:51:50.086Z,78.96
2019-05-16T20:54:18.292Z,78.81
2019-05-16T20:56:49.532Z,78.43
2019-05-16T20:59:18.797Z,77.81
2019-05-16T21:01:49.295Z,77.79
2019-05-16T21:04:18.796Z,77.63
2019-05-16T21:07:00.443Z,78.28
2019-05-16T21:09:19.745Z,78.41
2019-05-16T21:11:49.990Z,78.66
2019-05-16T21:14:19.667Z,78.27
2019-05-16T21:16:49.551Z,78.00
2019-05-16T21:19:19.126Z,78.83
2019-05-16T21:21:48.423Z,78.55
2019-05-16T21:24:17.693Z,79.25
2019-05-16T21:26:46.974Z,80.29
2019-05-16T21:29:16.433Z,80.25
2019-05-16T21:31:47.409Z,80.14
2019-05-16T21:34:19.112Z,80.49
2019-05-16T21:36:47.670Z,80.88
2019-05-16T21:39:17.667Z,81.87
2019-05-16T21:41:47.313Z,81.50
2019-05-16T21:44:17.199Z,81.85
2019-05-16T21:46:47.086Z,82.12
2019-05-16T21:49:19.508Z,81.83
2019-05-16T21:51:47.682Z,82.71
2019-05-16T21:54:16.992Z,82.75
2019-05-16T21:56:46.857Z,83.66
2019-05-16T21:59:16.136Z,85.64
2019-05-16T22:01:47.256Z,86.54
2019-05-16T22:04:16.926Z,87.29
2019-05-16T22:06:47.506Z,88.87
2019-05-16T22:09:17.777Z,88.19
2019-05-16T22:11:47.110Z,87.66
2019-05-16T22:14:19.152Z,87.99
2019-05-16T22:16:48.693Z,89.64
2019-05-16T22:19:17.935Z,90.47
2019-05-16T22:21:47.205Z,90.46
2019-05-16T22:24:17.195Z,89.49
2019-05-16T22:26:46.773Z,91.42
2019-05-16T22:29:17.065Z,93.22
2019-05-16T22:31:47.232Z,93.46
2019-05-16T22:34:17.011Z,91.44
2019-05-16T22:36:49.247Z,91.00
2019-05-16T22:39:17.624Z,91.48
2019-05-16T22:41:46.878Z,92.07
2019-05-16T22:44:17.696Z,90.87
2019-05-16T22:46:47.087Z,91.78
2019-05-16T22:49:16.936Z,93.05
2019-05-16T22:51:46.546Z,92.89
2019-05-16T22:54:17.181Z,92.37
2019-05-16T22:56:46.825Z,90.54
2019-05-16T22:59:16.623Z,91.79
2019-05-16T23:01:46.361Z,95.05
2019-05-16T23:04:16.812Z,91.36
2019-05-16T23:06:46.601Z,92.68
2019-05-16T23:09:16.410Z,91.32
2019-05-16T23:11:46.048Z,94.45
2019-05-16T23:14:17.033Z,92.40
2019-05-16T23:16:46.563Z,91.97
2019-05-16T23:19:17.090Z,93.48
2019-05-16T23:21:47.460Z,93.98
2019-05-16T23:24:17.431Z,94.23
2019-05-16T23:26:47.146Z,95.34
2019-05-16T23:29:17.083Z,95.14
2019-05-16T23:31:47.174Z,93.46
2019-05-16T23:34:18.772Z,95.95
2019-05-16T23:36:47.927Z,93.96
2019-05-16T23:39:17.256Z,93.61
2019-05-16T23:41:47.400Z,94.83
2019-05-16T23:44:17.088Z,93.54
2019-05-16T23:46:47.057Z,92.55
2019-05-16T23:49:16.874Z,94.78
2019-05-16T23:51:47.327Z,93.99
2019-05-16T23:54:17.359Z,93.27
2019-05-16T23:56:46.822Z,94.46
2019-05-16T23:59:17.140Z,91.86
